Portada
METAR-TAF:

METAR-TAF

Aeroports :

Mountain Home, Arkansas, Estats Units d'Amèrica

latitud: 36-22-14N, longitud: 092-28-19W, altitud: 282 m

Observació

L'informe es va fer fa 1 hora i 3 minuts, a les 16:53 UTC
Vent 5 kt del Sud
Temperatura 28°C
Humitat 55%
Pressió 1026 hPa
Visibilitat: 16.1 km
Cel clar

METAR: KBPK 201653Z AUTO 18005KT 10SM CLR 28/18 A3029 RMK AO2 SLP246 T02830183

Hora: 12:56 (17:56 UTC)

Pronòstic

L'informe es va fer fa 36 minuts, a les 17:20 UTC
Pronòstic vàlid del 20 a les 18 UTC al 21 a les 18 UTC
Vent 6 kt del Sud-Est
Visibilitat: 10 km
Escasses núvols a una alçada de 5000 ft
Núvols disperses a una alçada de 25000 ft
A partir de les 21 a les 0000 UTC
Vent 3 kt amb direcció variable
Visibilitat: 10 km
Núvols disperses a una alçada de 25000 ft

TAF: KBPK 201720Z 2018/2118 13006KT P6SM FEW050 SCT250 FM210000 VRB03KT P6SM SCT250

Observacions i pronòstics meteorològics de més de 4000 aeroports (METAR i TAF).

Les estacions disponibles són els punts grocs i vermells al mapa.

Posi el ratolí al punt desitjat per veure el nom de l'estació.

Feu clic per veure les observacions i els pronòstics meteorològics.

Per canviar el mapa: feu clic els botons verds amb una creu de color negre per apropar; al botó verd amb un guió per allunyar la imatge; o en les fletxes verdes per a mapes adjacents.


METAR-TAF: